sensor_id;sensor_type;location;lat;lon;timestamp;P1;durP1;ratioP1;P2;durP2;ratioP2
37151;SDS011;23046;50.112;8.952;2023-03-01T00:00:07;7.60;;;5.00;;
37151;SDS011;23046;50.112;8.952;2023-03-01T00:00:21;7.50;;;4.90;;
37151;SDS011;23046;50.112;8.952;2023-03-01T00:00:32;7.50;;;5.17;;
37151;SDS011;23046;50.112;8.952;2023-03-01T00:00:42;8.18;;;5.40;;
37151;SDS011;23046;50.112;8.952;2023-03-01T00:01:10;6.82;;;5.13;;
37151;SDS011;23046;50.112;8.952;2023-03-01T00:01:21;8.00;;;5.05;;
37151;SDS011;23046;50.112;8.952;2023-03-01T00:01:32;8.00;;;4.80;;
37151;SDS011;23046;50.112;8.952;2023-03-01T00:01:42;7.93;;;4.63;;
37151;SDS011;23046;50.112;8.952;2023-03-01T00:01:52;9.03;;;4.80;;
37151;SDS011;23046;50.112;8.952;2023-03-01T00:02:02;8.37;;;4.80;;
37151;SDS011;23046;50.112;8.952;2023-03-01T00:02:14;8.23;;;4.95;;
37151;SDS011;23046;50.112;8.952;2023-03-01T00:02:24;7.67;;;4.80;;
37151;SDS011;23046;50.112;8.952;2023-03-01T00:02:34;8.60;;;4.93;;
37151;SDS011;23046;50.112;8.952;2023-03-01T00:02:45;8.18;;;4.97;;
37151;SDS011;23046;50.112;8.952;2023-03-01T00:02:55;8.57;;;5.27;;
37151;SDS011;23046;50.112;8.952;2023-03-01T00:03:05;7.60;;;5.20;;
37151;SDS011;23046;50.112;8.952;2023-03-01T00:03:16;8.33;;;5.37;;
37151;SDS011;23046;50.112;8.952;2023-03-01T00:03:26;7.05;;;5.10;;
37151;SDS011;23046;50.112;8.952;2023-03-01T00:03:37;6.65;;;4.97;;
37151;SDS011;23046;50.112;8.952;2023-03-01T00:03:47;6.70;;;4.97;;
37151;SDS011;23046;50.112;8.952;2023-03-01T00:03:58;7.33;;;5.00;;
37151;SDS011;23046;50.112;8.952;2023-03-01T00:04:08;9.30;;;5.20;;
37151;SDS011;23046;50.112;8.952;2023-03-01T00:04:18;9.10;;;5.20;;
37151;SDS011;23046;50.112;8.952;2023-03-01T00:04:29;9.73;;;5.40;;
37151;SDS011;23046;50.112;8.952;2023-03-01T00:04:39;10.33;;;5.47;;
37151;SDS011;23046;50.112;8.952;2023-03-01T00:04:49;10.90;;;5.40;;
37151;SDS011;23046;50.112;8.952;2023-03-01T00:04:59;10.53;;;5.20;;
37151;SDS011;23046;50.112;8.952;2023-03-01T00:05:09;8.90;;;5.20;;
37151;SDS011;23046;50.112;8.952;2023-03-01T00:05:19;8.33;;;5.00;;
37151;SDS011;23046;50.112;8.952;2023-03-01T00:05:30;8.10;;;5.10;;
37151;SDS011;23046;50.112;8.952;2023-03-01T00:05:43;8.03;;;5.07;;
37151;SDS011;23046;50.112;8.952;2023-03-01T00:05:54;8.85;;;5.40;;
37151;SDS011;23046;50.112;8.952;2023-03-01T00:06:04;9.07;;;5.67;;
37151;SDS011;23046;50.112;8.952;2023-03-01T00:06:14;9.88;;;5.70;;
37151;SDS011;23046;50.112;8.952;2023-03-01T00:06:25;9.43;;;5.43;;
37151;SDS011;23046;50.112;8.952;2023-03-01T00:06:36;9.70;;;5.15;;
37151;SDS011;23046;50.112;8.952;2023-03-01T00:06:47;8.80;;;5.03;;
37151;SDS011;23046;50.112;8.952;2023-03-01T00:06:57;10.07;;;5.22;;
37151;SDS011;23046;50.112;8.952;2023-03-01T00:07:07;9.40;;;5.47;;
37151;SDS011;23046;50.112;8.952;2023-03-01T00:07:17;8.53;;;5.40;;
37151;SDS011;23046;50.112;8.952;2023-03-01T00:07:28;7.53;;;5.33;;
37151;SDS011;23046;50.112;8.952;2023-03-01T00:07:38;7.63;;;5.37;;
37151;SDS011;23046;50.112;8.952;2023-03-01T00:07:48;8.43;;;5.50;;
37151;SDS011;23046;50.112;8.952;2023-03-01T00:08:01;7.88;;;5.35;;
37151;SDS011;23046;50.112;8.952;2023-03-01T00:08:12;8.77;;;5.37;;
37151;SDS011;23046;50.112;8.952;2023-03-01T00:08:22;8.53;;;5.23;;
37151;SDS011;23046;50.112;8.952;2023-03-01T00:08:33;8.90;;;5.30;;
37151;SDS011;23046;50.112;8.952;2023-03-01T00:08:43;7.90;;;5.28;;
37151;SDS011;23046;50.112;8.952;2023-03-01T00:08:53;8.27;;;5.50;;
37151;SDS011;23046;50.112;8.952;2023-03-01T00:09:04;9.20;;;5.57;;
37151;SDS011;23046;50.112;8.952;2023-03-01T00:09:14;9.07;;;5.65;;
37151;SDS011;23046;50.112;8.952;2023-03-01T00:09:24;9.20;;;5.70;;
37151;SDS011;23046;50.112;8.952;2023-03-01T00:09:35;8.13;;;5.60;;
37151;SDS011;23046;50.112;8.952;2023-03-01T00:09:46;7.88;;;5.43;;
37151;SDS011;23046;50.112;8.952;2023-03-01T00:09:56;8.47;;;5.43;;
37151;SDS011;23046;50.112;8.952;2023-03-01T00:10:06;8.53;;;5.40;;
37151;SDS011;23046;50.112;8.952;2023-03-01T00:10:16;8.40;;;5.55;;
37151;SDS011;23046;50.112;8.952;2023-03-01T00:10:26;8.07;;;5.67;;
37151;SDS011;23046;50.112;8.952;2023-03-01T00:10:37;8.13;;;5.53;;
37151;SDS011;23046;50.112;8.952;2023-03-01T00:10:47;8.37;;;5.70;;
37151;SDS011;23046;50.112;8.952;2023-03-01T00:11:04;8.47;;;5.60;;
37151;SDS011;23046;50.112;8.952;2023-03-01T00:11:25;8.70;;;5.70;;
37151;SDS011;23046;50.112;8.952;2023-03-01T00:11:36;9.13;;;5.78;;
37151;SDS011;23046;50.112;8.952;2023-03-01T00:11:46;9.97;;;5.67;;
37151;SDS011;23046;50.112;8.952;2023-03-01T00:11:56;9.90;;;5.50;;
37151;SDS011;23046;50.112;8.952;2023-03-01T00:12:06;8.53;;;5.53;;
37151;SDS011;23046;50.112;8.952;2023-03-01T00:12:17;8.47;;;5.60;;
37151;SDS011;23046;50.112;8.952;2023-03-01T00:12:27;8.37;;;5.70;;
37151;SDS011;23046;50.112;8.952;2023-03-01T00:12:37;7.75;;;5.35;;
37151;SDS011;23046;50.112;8.952;2023-03-01T00:12:47;8.17;;;5.53;;
37151;SDS011;23046;50.112;8.952;2023-03-01T00:12:58;8.47;;;5.67;;
37151;SDS011;23046;50.112;8.952;2023-03-01T00:13:08;9.37;;;6.10;;
37151;SDS011;23046;50.112;8.952;2023-03-01T00:13:18;9.13;;;5.87;;
37151;SDS011;23046;50.112;8.952;2023-03-01T00:13:28;9.30;;;5.80;;
37151;SDS011;23046;50.112;8.952;2023-03-01T00:13:39;8.27;;;5.43;;
37151;SDS011;23046;50.112;8.952;2023-03-01T00:13:50;7.87;;;5.33;;
37151;SDS011;23046;50.112;8.952;2023-03-01T00:14:01;8.23;;;5.50;;
37151;SDS011;23046;50.112;8.952;2023-03-01T00:14:11;9.27;;;5.68;;
37151;SDS011;23046;50.112;8.952;2023-03-01T00:14:22;9.33;;;5.67;;
37151;SDS011;23046;50.112;8.952;2023-03-01T00:14:32;9.20;;;5.70;;
37151;SDS011;23046;50.112;8.952;2023-03-01T00:14:42;8.30;;;5.50;;
37151;SDS011;23046;50.112;8.952;2023-03-01T00:14:52;7.85;;;5.57;;
37151;SDS011;23046;50.112;8.952;2023-03-01T00:15:03;8.07;;;5.50;;
37151;SDS011;23046;50.112;8.952;2023-03-01T00:15:14;8.98;;;5.72;;
37151;SDS011;23046;50.112;8.952;2023-03-01T00:15:24;9.07;;;5.67;;
37151;SDS011;23046;50.112;8.952;2023-03-01T00:15:37;8.03;;;5.50;;
37151;SDS011;23046;50.112;8.952;2023-03-01T00:15:47;7.82;;;5.70;;
37151;SDS011;23046;50.112;8.952;2023-03-01T00:15:58;7.67;;;5.70;;
37151;SDS011;23046;50.112;8.952;2023-03-01T00:16:09;9.60;;;5.83;;
37151;SDS011;23046;50.112;8.952;2023-03-01T00:16:21;9.18;;;5.53;;
37151;SDS011;23046;50.112;8.952;2023-03-01T00:16:35;9.25;;;5.72;;
37151;SDS011;23046;50.112;8.952;2023-03-01T00:16:46;8.48;;;5.82;;
37151;SDS011;23046;50.112;8.952;2023-03-01T00:16:56;8.93;;;5.77;;
37151;SDS011;23046;50.112;8.952;2023-03-01T00:17:06;9.80;;;5.80;;
37151;SDS011;23046;50.112;8.952;2023-03-01T00:17:16;9.07;;;5.53;;
37151;SDS011;23046;50.112;8.952;2023-03-01T00:17:27;9.60;;;5.83;;
37151;SDS011;23046;50.112;8.952;2023-03-01T00:17:37;9.43;;;5.80;;
37151;SDS011;23046;50.112;8.952;2023-03-01T00:17:47;9.90;;;5.90;;
37151;SDS011;23046;50.112;8.952;2023-03-01T00:17:57;9.27;;;5.85;;
37151;SDS011;23046;50.112;8.952;2023-03-01T00:18:08;8.80;;;5.90;;
37151;SDS011;23046;50.112;8.952;2023-03-01T00:18:18;9.37;;;6.13;;
37151;SDS011;23046;50.112;8.952;2023-03-01T00:18:28;9.88;;;6.22;;
37151;SDS011;23046;50.112;8.952;2023-03-01T00:18:39;9.13;;;6.17;;
37151;SDS011;23046;50.112;8.952;2023-03-01T00:18:49;8.97;;;5.83;;
37151;SDS011;23046;50.112;8.952;2023-03-01T00:19:00;8.48;;;5.78;;
37151;SDS011;23046;50.112;8.952;2023-03-01T00:19:11;9.00;;;5.78;;
37151;SDS011;23046;50.112;8.952;2023-03-01T00:19:23;8.13;;;5.78;;
37151;SDS011;23046;50.112;8.952;2023-03-01T00:19:33;8.50;;;5.60;;
37151;SDS011;23046;50.112;8.952;2023-03-01T00:19:43;8.50;;;5.50;;
37151;SDS011;23046;50.112;8.952;2023-03-01T00:19:53;9.70;;;5.83;;
37151;SDS011;23046;50.112;8.952;2023-03-01T00:20:04;10.05;;;6.13;;
37151;SDS011;23046;50.112;8.952;2023-03-01T00:20:17;10.52;;;6.40;;
37151;SDS011;23046;50.112;8.952;2023-03-01T00:20:28;10.40;;;6.18;;
37151;SDS011;23046;50.112;8.952;2023-03-01T00:20:38;9.17;;;5.97;;
37151;SDS011;23046;50.112;8.952;2023-03-01T00:20:51;9.57;;;6.03;;
37151;SDS011;23046;50.112;8.952;2023-03-01T00:21:02;8.70;;;6.07;;
37151;SDS011;23046;50.112;8.952;2023-03-01T00:21:12;9.07;;;6.07;;
37151;SDS011;23046;50.112;8.952;2023-03-01T00:21:23;8.30;;;5.70;;
37151;SDS011;23046;50.112;8.952;2023-03-01T00:21:33;8.13;;;5.72;;
37151;SDS011;23046;50.112;8.952;2023-03-01T00:21:45;7.57;;;5.60;;
37151;SDS011;23046;50.112;8.952;2023-03-01T00:21:55;8.03;;;5.83;;
37151;SDS011;23046;50.112;8.952;2023-03-01T00:22:05;8.50;;;5.70;;
37151;SDS011;23046;50.112;8.952;2023-03-01T00:22:15;8.40;;;5.60;;
37151;SDS011;23046;50.112;8.952;2023-03-01T00:22:26;8.70;;;5.70;;
37151;SDS011;23046;50.112;8.952;2023-03-01T00:22:38;8.60;;;5.80;;
37151;SDS011;23046;50.112;8.952;2023-03-01T00:22:48;8.83;;;5.67;;
37151;SDS011;23046;50.112;8.952;2023-03-01T00:22:58;9.67;;;5.70;;
37151;SDS011;23046;50.112;8.952;2023-03-01T00:23:08;10.03;;;5.77;;
37151;SDS011;23046;50.112;8.952;2023-03-01T00:23:19;10.27;;;5.73;;
37151;SDS011;23046;50.112;8.952;2023-03-01T00:23:29;8.32;;;5.32;;
37151;SDS011;23046;50.112;8.952;2023-03-01T00:23:39;8.10;;;5.27;;
37151;SDS011;23046;50.112;8.952;2023-03-01T00:23:50;7.20;;;5.30;;
37151;SDS011;23046;50.112;8.952;2023-03-01T00:24:00;8.98;;;5.55;;
37151;SDS011;23046;50.112;8.952;2023-03-01T00:24:11;10.05;;;5.50;;
37151;SDS011;23046;50.112;8.952;2023-03-01T00:24:21;10.13;;;5.33;;
37151;SDS011;23046;50.112;8.952;2023-03-01T00:24:31;8.57;;;5.30;;
37151;SDS011;23046;50.112;8.952;2023-03-01T00:24:41;7.47;;;5.20;;
37151;SDS011;23046;50.112;8.952;2023-03-01T00:24:52;8.00;;;5.30;;
37151;SDS011;23046;50.112;8.952;2023-03-01T00:25:02;8.25;;;5.38;;
37151;SDS011;23046;50.112;8.952;2023-03-01T00:25:13;8.45;;;5.53;;
37151;SDS011;23046;50.112;8.952;2023-03-01T00:25:23;9.27;;;5.80;;
37151;SDS011;23046;50.112;8.952;2023-03-01T00:25:33;9.40;;;6.00;;
37151;SDS011;23046;50.112;8.952;2023-03-01T00:25:43;9.20;;;5.90;;
37151;SDS011;23046;50.112;8.952;2023-03-01T00:25:54;8.10;;;5.70;;
37151;SDS011;23046;50.112;8.952;2023-03-01T00:26:08;7.97;;;5.68;;
37151;SDS011;23046;50.112;8.952;2023-03-01T00:26:20;8.15;;;5.70;;
37151;SDS011;23046;50.112;8.952;2023-03-01T00:26:31;8.40;;;5.72;;
37151;SDS011;23046;50.112;8.952;2023-03-01T00:26:41;8.63;;;5.85;;
37151;SDS011;23046;50.112;8.952;2023-03-01T00:26:55;8.90;;;5.73;;
37151;SDS011;23046;50.112;8.952;2023-03-01T00:27:05;9.65;;;5.50;;
37151;SDS011;23046;50.112;8.952;2023-03-01T00:27:15;8.90;;;5.37;;
37151;SDS011;23046;50.112;8.952;2023-03-01T00:27:26;8.47;;;5.40;;
37151;SDS011;23046;50.112;8.952;2023-03-01T00:27:36;8.15;;;5.60;;
37151;SDS011;23046;50.112;8.952;2023-03-01T00:27:47;8.40;;;5.80;;
37151;SDS011;23046;50.112;8.952;2023-03-01T00:27:58;8.85;;;6.00;;
37151;SDS011;23046;50.112;8.952;2023-03-01T00:28:09;9.10;;;5.80;;
37151;SDS011;23046;50.112;8.952;2023-03-01T00:28:19;10.10;;;5.70;;
37151;SDS011;23046;50.112;8.952;2023-03-01T00:28:29;9.50;;;5.80;;
37151;SDS011;23046;50.112;8.952;2023-03-01T00:28:40;8.80;;;5.93;;
37151;SDS011;23046;50.112;8.952;2023-03-01T00:28:51;8.38;;;6.20;;
37151;SDS011;23046;50.112;8.952;2023-03-01T00:29:01;8.67;;;6.00;;
37151;SDS011;23046;50.112;8.952;2023-03-01T00:29:12;9.13;;;5.90;;
37151;SDS011;23046;50.112;8.952;2023-03-01T00:29:23;9.35;;;5.90;;
37151;SDS011;23046;50.112;8.952;2023-03-01T00:29:33;9.35;;;6.07;;
37151;SDS011;23046;50.112;8.952;2023-03-01T00:29:43;9.30;;;6.30;;
37151;SDS011;23046;50.112;8.952;2023-03-01T00:29:53;10.20;;;6.23;;
37151;SDS011;23046;50.112;8.952;2023-03-01T00:30:04;10.50;;;6.20;;
37151;SDS011;23046;50.112;8.952;2023-03-01T00:30:15;9.77;;;5.85;;
37151;SDS011;23046;50.112;8.952;2023-03-01T00:30:25;8.45;;;5.70;;
37151;SDS011;23046;50.112;8.952;2023-03-01T00:30:36;9.40;;;5.82;;
37151;SDS011;23046;50.112;8.952;2023-03-01T00:30:46;9.70;;;5.93;;
37151;SDS011;23046;50.112;8.952;2023-03-01T00:31:02;9.70;;;6.00;;
37151;SDS011;23046;50.112;8.952;2023-03-01T00:31:13;8.63;;;5.60;;
37151;SDS011;23046;50.112;8.952;2023-03-01T00:31:24;8.60;;;5.60;;
37151;SDS011;23046;50.112;8.952;2023-03-01T00:31:35;8.65;;;5.70;;
37151;SDS011;23046;50.112;8.952;2023-03-01T00:31:45;8.73;;;5.83;;
37151;SDS011;23046;50.112;8.952;2023-03-01T00:31:55;8.85;;;5.60;;
37151;SDS011;23046;50.112;8.952;2023-03-01T00:32:05;8.77;;;5.50;;
37151;SDS011;23046;50.112;8.952;2023-03-01T00:32:15;9.83;;;5.70;;
37151;SDS011;23046;50.112;8.952;2023-03-01T00:32:26;9.53;;;5.73;;
37151;SDS011;23046;50.112;8.952;2023-03-01T00:32:36;9.10;;;5.60;;
37151;SDS011;23046;50.112;8.952;2023-03-01T00:32:46;8.13;;;5.38;;
37151;SDS011;23046;50.112;8.952;2023-03-01T00:32:56;8.67;;;5.47;;
37151;SDS011;23046;50.112;8.952;2023-03-01T00:33:07;9.23;;;5.90;;
37151;SDS011;23046;50.112;8.952;2023-03-01T00:33:17;9.37;;;6.03;;
37151;SDS011;23046;50.112;8.952;2023-03-01T00:33:27;8.93;;;6.10;;
37151;SDS011;23046;50.112;8.952;2023-03-01T00:33:37;8.47;;;5.87;;
37151;SDS011;23046;50.112;8.952;2023-03-01T00:33:51;8.70;;;5.82;;
37151;SDS011;23046;50.112;8.952;2023-03-01T00:34:03;8.25;;;5.68;;
37151;SDS011;23046;50.112;8.952;2023-03-01T00:34:13;8.32;;;5.63;;
37151;SDS011;23046;50.112;8.952;2023-03-01T00:34:23;9.50;;;5.53;;
37151;SDS011;23046;50.112;8.952;2023-03-01T00:34:33;10.37;;;5.80;;
37151;SDS011;23046;50.112;8.952;2023-03-01T00:34:44;10.10;;;5.80;;
37151;SDS011;23046;50.112;8.952;2023-03-01T00:35:04;8.98;;;5.93;;
37151;SDS011;23046;50.112;8.952;2023-03-01T00:35:15;8.40;;;5.85;;
37151;SDS011;23046;50.112;8.952;2023-03-01T00:35:25;7.97;;;5.67;;
37151;SDS011;23046;50.112;8.952;2023-03-01T00:35:36;7.63;;;5.40;;
37151;SDS011;23046;50.112;8.952;2023-03-01T00:35:46;9.10;;;5.53;;
37151;SDS011;23046;50.112;8.952;2023-03-01T00:35:57;9.30;;;5.70;;
37151;SDS011;23046;50.112;8.952;2023-03-01T00:36:09;9.23;;;5.97;;
37151;SDS011;23046;50.112;8.952;2023-03-01T00:36:19;8.40;;;5.80;;
37151;SDS011;23046;50.112;8.952;2023-03-01T00:36:31;8.90;;;5.40;;
37151;SDS011;23046;50.112;8.952;2023-03-01T00:36:42;9.65;;;5.32;;
37151;SDS011;23046;50.112;8.952;2023-03-01T00:36:52;8.88;;;5.22;;
37151;SDS011;23046;50.112;8.952;2023-03-01T00:37:02;7.77;;;5.33;;
37151;SDS011;23046;50.112;8.952;2023-03-01T00:37:15;7.50;;;5.57;;
37151;SDS011;23046;50.112;8.952;2023-03-01T00:37:25;7.80;;;5.70;;
37151;SDS011;23046;50.112;8.952;2023-03-01T00:37:35;7.90;;;5.57;;
37151;SDS011;23046;50.112;8.952;2023-03-01T00:37:45;7.60;;;5.40;;
37151;SDS011;23046;50.112;8.952;2023-03-01T00:37:56;7.40;;;5.23;;
37151;SDS011;23046;50.112;8.952;2023-03-01T00:38:08;7.50;;;5.47;;
37151;SDS011;23046;50.112;8.952;2023-03-01T00:38:18;7.57;;;5.53;;
37151;SDS011;23046;50.112;8.952;2023-03-01T00:38:28;8.20;;;5.68;;
37151;SDS011;23046;50.112;8.952;2023-03-01T00:38:40;8.67;;;5.43;;
37151;SDS011;23046;50.112;8.952;2023-03-01T00:38:50;9.50;;;5.50;;
37151;SDS011;23046;50.112;8.952;2023-03-01T00:39:00;9.40;;;5.67;;
37151;SDS011;23046;50.112;8.952;2023-03-01T00:39:13;9.30;;;5.80;;
37151;SDS011;23046;50.112;8.952;2023-03-01T00:39:23;8.43;;;5.55;;
37151;SDS011;23046;50.112;8.952;2023-03-01T00:39:33;8.27;;;5.25;;
37151;SDS011;23046;50.112;8.952;2023-03-01T00:39:44;8.40;;;5.23;;
37151;SDS011;23046;50.112;8.952;2023-03-01T00:39:54;8.93;;;5.47;;
37151;SDS011;23046;50.112;8.952;2023-03-01T00:40:05;9.20;;;5.68;;
37151;SDS011;23046;50.112;8.952;2023-03-01T00:40:16;8.38;;;5.53;;
37151;SDS011;23046;50.112;8.952;2023-03-01T00:40:27;8.57;;;5.67;;
37151;SDS011;23046;50.112;8.952;2023-03-01T00:40:37;8.93;;;5.82;;
37151;SDS011;23046;50.112;8.952;2023-03-01T00:40:47;10.40;;;6.10;;
37151;SDS011;23046;50.112;8.952;2023-03-01T00:41:02;9.88;;;5.97;;
37151;SDS011;23046;50.112;8.952;2023-03-01T00:41:14;10.00;;;6.00;;
37151;SDS011;23046;50.112;8.952;2023-03-01T00:41:25;10.13;;;6.13;;
37151;SDS011;23046;50.112;8.952;2023-03-01T00:41:38;9.77;;;6.13;;
37151;SDS011;23046;50.112;8.952;2023-03-01T00:41:49;9.90;;;5.97;;
37151;SDS011;23046;50.112;8.952;2023-03-01T00:42:00;10.47;;;5.73;;
37151;SDS011;23046;50.112;8.952;2023-03-01T00:42:10;10.90;;;5.68;;
37151;SDS011;23046;50.112;8.952;2023-03-01T00:42:21;9.67;;;5.60;;
37151;SDS011;23046;50.112;8.952;2023-03-01T00:42:32;8.93;;;5.75;;
37151;SDS011;23046;50.112;8.952;2023-03-01T00:42:42;7.93;;;5.73;;
37151;SDS011;23046;50.112;8.952;2023-03-01T00:42:52;7.90;;;5.80;;
37151;SDS011;23046;50.112;8.952;2023-03-01T00:43:02;7.67;;;5.70;;
37151;SDS011;23046;50.112;8.952;2023-03-01T00:43:13;8.07;;;5.75;;
37151;SDS011;23046;50.112;8.952;2023-03-01T00:43:23;8.37;;;5.90;;
37151;SDS011;23046;50.112;8.952;2023-03-01T00:43:33;8.97;;;5.80;;
37151;SDS011;23046;50.112;8.952;2023-03-01T00:43:46;8.93;;;5.75;;
37151;SDS011;23046;50.112;8.952;2023-03-01T00:43:56;9.33;;;5.90;;
37151;SDS011;23046;50.112;8.952;2023-03-01T00:44:07;9.50;;;6.00;;
37151;SDS011;23046;50.112;8.952;2023-03-01T00:44:19;9.30;;;5.65;;
37151;SDS011;23046;50.112;8.952;2023-03-01T00:44:29;8.23;;;5.37;;
37151;SDS011;23046;50.112;8.952;2023-03-01T00:44:39;8.23;;;5.40;;
37151;SDS011;23046;50.112;8.952;2023-03-01T00:44:49;7.93;;;5.53;;
37151;SDS011;23046;50.112;8.952;2023-03-01T00:45:00;8.30;;;5.57;;
37151;SDS011;23046;50.112;8.952;2023-03-01T00:45:10;8.00;;;5.60;;
37151;SDS011;23046;50.112;8.952;2023-03-01T00:45:21;8.10;;;5.72;;
37151;SDS011;23046;50.112;8.952;2023-03-01T00:45:32;8.77;;;5.93;;
37151;SDS011;23046;50.112;8.952;2023-03-01T00:45:42;8.63;;;5.80;;
37151;SDS011;23046;50.112;8.952;2023-03-01T00:45:53;9.38;;;5.75;;
37151;SDS011;23046;50.112;8.952;2023-03-01T00:46:04;9.13;;;5.60;;
37151;SDS011;23046;50.112;8.952;2023-03-01T00:46:18;9.98;;;5.75;;
37151;SDS011;23046;50.112;8.952;2023-03-01T00:46:29;9.30;;;5.78;;
37151;SDS011;23046;50.112;8.952;2023-03-01T00:46:40;9.25;;;5.80;;
37151;SDS011;23046;50.112;8.952;2023-03-01T00:46:50;9.23;;;6.10;;
37151;SDS011;23046;50.112;8.952;2023-03-01T00:47:00;8.90;;;6.20;;
37151;SDS011;23046;50.112;8.952;2023-03-01T00:47:10;9.05;;;6.00;;
37151;SDS011;23046;50.112;8.952;2023-03-01T00:47:21;9.00;;;5.90;;
37151;SDS011;23046;50.112;8.952;2023-03-01T00:47:31;9.23;;;5.50;;
37151;SDS011;23046;50.112;8.952;2023-03-01T00:47:41;9.47;;;5.50;;
37151;SDS011;23046;50.112;8.952;2023-03-01T00:47:52;9.17;;;5.37;;
37151;SDS011;23046;50.112;8.952;2023-03-01T00:48:02;9.70;;;5.75;;
37151;SDS011;23046;50.112;8.952;2023-03-01T00:48:12;8.73;;;5.80;;
37151;SDS011;23046;50.112;8.952;2023-03-01T00:48:23;9.43;;;5.90;;
37151;SDS011;23046;50.112;8.952;2023-03-01T00:48:33;9.53;;;5.80;;
37151;SDS011;23046;50.112;8.952;2023-03-01T00:48:44;9.53;;;5.70;;
37151;SDS011;23046;50.112;8.952;2023-03-01T00:48:54;8.55;;;5.53;;
37151;SDS011;23046;50.112;8.952;2023-03-01T00:49:05;8.80;;;5.90;;
37151;SDS011;23046;50.112;8.952;2023-03-01T00:49:15;10.13;;;6.10;;
37151;SDS011;23046;50.112;8.952;2023-03-01T00:49:25;11.53;;;6.13;;
37151;SDS011;23046;50.112;8.952;2023-03-01T00:49:37;12.95;;;5.65;;
37151;SDS011;23046;50.112;8.952;2023-03-01T00:49:47;11.13;;;5.37;;
37151;SDS011;23046;50.112;8.952;2023-03-01T00:49:58;10.25;;;5.53;;
37151;SDS011;23046;50.112;8.952;2023-03-01T00:50:08;9.40;;;5.80;;
37151;SDS011;23046;50.112;8.952;2023-03-01T00:50:19;9.30;;;5.83;;
37151;SDS011;23046;50.112;8.952;2023-03-01T00:50:29;9.10;;;5.60;;
37151;SDS011;23046;50.112;8.952;2023-03-01T00:50:39;10.13;;;5.73;;
37151;SDS011;23046;50.112;8.952;2023-03-01T00:50:49;10.37;;;5.77;;
37151;SDS011;23046;50.112;8.952;2023-03-01T00:51:06;10.10;;;5.90;;
37151;SDS011;23046;50.112;8.952;2023-03-01T00:51:18;8.25;;;5.80;;
37151;SDS011;23046;50.112;8.952;2023-03-01T00:51:29;8.40;;;5.72;;
37151;SDS011;23046;50.112;8.952;2023-03-01T00:51:40;8.43;;;5.85;;
37151;SDS011;23046;50.112;8.952;2023-03-01T00:51:51;9.00;;;5.75;;
37151;SDS011;23046;50.112;8.952;2023-03-01T00:52:01;9.10;;;5.70;;
37151;SDS011;23046;50.112;8.952;2023-03-01T00:52:11;8.93;;;5.77;;
37151;SDS011;23046;50.112;8.952;2023-03-01T00:52:21;8.90;;;5.97;;
37151;SDS011;23046;50.112;8.952;2023-03-01T00:52:32;8.57;;;6.00;;
37151;SDS011;23046;50.112;8.952;2023-03-01T00:52:42;10.38;;;5.90;;
37151;SDS011;23046;50.112;8.952;2023-03-01T00:52:53;10.70;;;5.80;;
37151;SDS011;23046;50.112;8.952;2023-03-01T00:53:03;10.50;;;5.70;;
37151;SDS011;23046;50.112;8.952;2023-03-01T00:53:15;9.00;;;5.63;;
37151;SDS011;23046;50.112;8.952;2023-03-01T00:53:25;8.25;;;5.60;;
37151;SDS011;23046;50.112;8.952;2023-03-01T00:53:35;7.53;;;5.50;;
37151;SDS011;23046;50.112;8.952;2023-03-01T00:53:46;7.90;;;5.60;;
37151;SDS011;23046;50.112;8.952;2023-03-01T00:53:58;8.77;;;5.70;;
37151;SDS011;23046;50.112;8.952;2023-03-01T00:54:08;10.20;;;5.75;;
37151;SDS011;23046;50.112;8.952;2023-03-01T00:54:19;9.63;;;5.53;;
37151;SDS011;23046;50.112;8.952;2023-03-01T00:54:31;9.02;;;5.47;;
37151;SDS011;23046;50.112;8.952;2023-03-01T00:54:41;9.35;;;5.60;;
37151;SDS011;23046;50.112;8.952;2023-03-01T00:54:52;9.80;;;5.68;;
37151;SDS011;23046;50.112;8.952;2023-03-01T00:55:03;9.40;;;5.60;;
37151;SDS011;23046;50.112;8.952;2023-03-01T00:55:14;8.60;;;5.32;;
37151;SDS011;23046;50.112;8.952;2023-03-01T00:55:24;9.13;;;5.47;;
37151;SDS011;23046;50.112;8.952;2023-03-01T00:55:35;9.20;;;5.75;;
37151;SDS011;23046;50.112;8.952;2023-03-01T00:55:46;8.87;;;5.67;;
37151;SDS011;23046;50.112;8.952;2023-03-01T00:55:56;8.93;;;5.60;;
37151;SDS011;23046;50.112;8.952;2023-03-01T00:56:07;9.07;;;5.70;;
37151;SDS011;23046;50.112;8.952;2023-03-01T00:56:18;8.77;;;5.57;;
37151;SDS011;23046;50.112;8.952;2023-03-01T00:56:28;8.25;;;5.45;;
37151;SDS011;23046;50.112;8.952;2023-03-01T00:56:39;8.32;;;5.32;;
37151;SDS011;23046;50.112;8.952;2023-03-01T00:56:49;9.00;;;5.50;;
37151;SDS011;23046;50.112;8.952;2023-03-01T00:57:00;8.67;;;5.53;;
37151;SDS011;23046;50.112;8.952;2023-03-01T00:57:10;8.93;;;5.70;;
37151;SDS011;23046;50.112;8.952;2023-03-01T00:57:20;9.33;;;5.87;;
37151;SDS011;23046;50.112;8.952;2023-03-01T00:57:30;9.65;;;5.82;;
37151;SDS011;23046;50.112;8.952;2023-03-01T00:57:40;9.63;;;5.73;;
37151;SDS011;23046;50.112;8.952;2023-03-01T00:57:52;9.75;;;5.55;;
37151;SDS011;23046;50.112;8.952;2023-03-01T00:58:02;10.17;;;5.57;;
37151;SDS011;23046;50.112;8.952;2023-03-01T00:58:12;10.02;;;5.65;;
37151;SDS011;23046;50.112;8.952;2023-03-01T00:58:22;8.87;;;5.70;;
37151;SDS011;23046;50.112;8.952;2023-03-01T00:58:33;8.23;;;5.70;;
37151;SDS011;23046;50.112;8.952;2023-03-01T00:58:43;8.60;;;5.57;;
37151;SDS011;23046;50.112;8.952;2023-03-01T00:58:53;9.55;;;5.68;;
37151;SDS011;23046;50.112;8.952;2023-03-01T00:59:03;9.13;;;5.73;;
37151;SDS011;23046;50.112;8.952;2023-03-01T00:59:14;9.47;;;5.70;;
37151;SDS011;23046;50.112;8.952;2023-03-01T00:59:24;8.87;;;5.70;;
37151;SDS011;23046;50.112;8.952;2023-03-01T00:59:34;9.53;;;5.60;;
37151;SDS011;23046;50.112;8.952;2023-03-01T00:59:44;9.57;;;5.75;;
37151;SDS011;23046;50.112;8.952;2023-03-01T00:59:55;10.57;;;5.77;;
37151;SDS011;23046;50.112;8.952;2023-03-01T01:00:06;10.30;;;5.80;;
37151;SDS011;23046;50.112;8.952;2023-03-01T01:00:17;9.32;;;5.60;;
37151;SDS011;23046;50.112;8.952;2023-03-01T01:00:27;8.20;;;5.70;;
37151;SDS011;23046;50.112;8.952;2023-03-01T01:00:37;7.93;;;5.55;;
37151;SDS011;23046;50.112;8.952;2023-03-01T01:00:48;8.23;;;5.70;;
37151;SDS011;23046;50.112;8.952;2023-03-01T01:00:59;9.35;;;5.72;;
37151;SDS011;23046;50.112;8.952;2023-03-01T01:01:16;10.33;;;5.67;;
37151;SDS011;23046;50.112;8.952;2023-03-01T01:01:28;9.38;;;5.65;;
37151;SDS011;23046;50.112;8.952;2023-03-01T01:01:41;8.45;;;5.75;;
37151;SDS011;23046;50.112;8.952;2023-03-01T01:01:51;9.10;;;5.73;;
37151;SDS011;23046;50.112;8.952;2023-03-01T01:02:01;9.17;;;5.73;;
37151;SDS011;23046;50.112;8.952;2023-03-01T01:02:11;9.45;;;5.72;;
37151;SDS011;23046;50.112;8.952;2023-03-01T01:02:22;9.83;;;5.63;;
37151;SDS011;23046;50.112;8.952;2023-03-01T01:02:33;10.02;;;5.57;;
37151;SDS011;23046;50.112;8.952;2023-03-01T01:02:44;9.90;;;5.57;;
37151;SDS011;23046;50.112;8.952;2023-03-01T01:02:54;9.88;;;5.70;;
37151;SDS011;23046;50.112;8.952;2023-03-01T01:03:05;9.67;;;5.67;;
37151;SDS011;23046;50.112;8.952;2023-03-01T01:03:15;9.67;;;5.60;;
37151;SDS011;23046;50.112;8.952;2023-03-01T01:03:25;9.20;;;5.70;;
37151;SDS011;23046;50.112;8.952;2023-03-01T01:03:36;8.83;;;5.87;;
37151;SDS011;23046;50.112;8.952;2023-03-01T01:03:50;9.57;;;5.90;;
37151;SDS011;23046;50.112;8.952;2023-03-01T01:04:01;9.57;;;5.78;;
37151;SDS011;23046;50.112;8.952;2023-03-01T01:04:12;9.48;;;5.53;;
37151;SDS011;23046;50.112;8.952;2023-03-01T01:04:23;9.00;;;5.53;;
37151;SDS011;23046;50.112;8.952;2023-03-01T01:04:33;8.23;;;5.57;;
37151;SDS011;23046;50.112;8.952;2023-03-01T01:04:43;7.83;;;5.70;;
37151;SDS011;23046;50.112;8.952;2023-03-01T01:04:53;8.80;;;5.80;;
37151;SDS011;23046;50.112;8.952;2023-03-01T01:05:04;8.63;;;5.80;;